New York, New York
Current Conditions -  °F | °C
As of 3:51 AM on Friday 31 Oct 2014 (Local Time) from KNYC Reporting Station
Broken Clouds Broken Clouds  
Wind Chill:   Ceiling: 5000
Heat Index:   Visibility: 10mi
Dew Point:   Wind: 5mph
Humidity: 63%   Direction: 60°ENE
Pressure: 30.03"   Gusts: NA
Location:  40.71°N, 74.01°W
Report Text: KNYC 310751Z AUTO 06004KT 10SM BKN050 08/01 A3003 RMK AO2 SLP162 T00780011 $
Loading
Personal Weather Stations






























Interactive Weather Map
Tropical Storm Tracking
New forecast layout! Learn more

10-Day Weather Forecast

Advertisements
Track Severe Weather on mobile